createdAt,value
2019-02-16T00:00:23.737Z,54.27
2019-02-16T00:02:52.380Z,54.05
2019-02-16T00:05:21.022Z,53.65
2019-02-16T00:07:49.721Z,64.05
2019-02-16T00:10:18.385Z,58.17
2019-02-16T00:12:47.016Z,61.65
2019-02-16T00:15:15.911Z,55.25
2019-02-16T00:17:44.546Z,59.20
2019-02-16T00:20:13.187Z,63.08
2019-02-16T00:22:42.604Z,62.33
2019-02-16T00:25:11.260Z,62.00
2019-02-16T00:27:39.902Z,51.95
2019-02-16T00:30:09.003Z,60.73
2019-02-16T00:32:37.943Z,56.95
2019-02-16T00:35:06.987Z,60.58
2019-02-16T00:37:35.684Z,59.67
2019-02-16T00:40:06.733Z,63.92
2019-02-16T00:42:35.383Z,64.37
2019-02-16T00:45:05.683Z,61.90
2019-02-16T00:47:34.343Z,67.08
2019-02-16T00:50:02.997Z,61.90
2019-02-16T00:52:31.697Z,58.15
2019-02-16T00:55:00.333Z,64.32
2019-02-16T00:57:28.974Z,55.58
2019-02-16T00:59:57.675Z,59.18
2019-02-16T01:02:26.316Z,58.65
2019-02-16T01:04:54.954Z,63.20
2019-02-16T01:07:23.684Z,62.40
2019-02-16T01:09:52.322Z,61.95
2019-02-16T01:12:20.880Z,64.17
2019-02-16T01:14:49.586Z,61.00
2019-02-16T01:17:18.240Z,61.77
2019-02-16T01:19:47.061Z,61.92
2019-02-16T01:22:16.065Z,62.95
2019-02-16T01:24:44.755Z,64.00
2019-02-16T01:27:13.302Z,62.73
2019-02-16T01:29:42.007Z,67.37
2019-02-16T01:32:10.654Z,62.38
2019-02-16T01:34:39.317Z,60.10
2019-02-16T01:37:08.006Z,67.85
2019-02-16T01:39:36.648Z,64.17
2019-02-16T01:42:05.313Z,59.27
2019-02-16T01:44:33.921Z,67.97
2019-02-16T01:47:02.561Z,66.75
2019-02-16T01:49:31.211Z,61.45
2019-02-16T01:51:59.834Z,67.67
2019-02-16T01:54:28.497Z,66.25
2019-02-16T01:56:57.154Z,61.00
2019-02-16T01:59:25.863Z,64.22
2019-02-16T02:01:54.509Z,68.00
2019-02-16T02:04:23.160Z,63.40
2019-02-16T02:06:51.862Z,66.37
2019-02-16T02:09:20.525Z,66.33
2019-02-16T02:11:49.191Z,64.05
2019-02-16T02:14:17.874Z,65.65
2019-02-16T02:16:46.524Z,64.92
2019-02-16T02:19:15.181Z,66.50
2019-02-16T02:21:43.867Z,62.27
2019-02-16T02:24:12.525Z,63.65
2019-02-16T02:26:42.043Z,65.80
2019-02-16T02:29:10.738Z,55.63
2019-02-16T02:31:39.391Z,58.35
2019-02-16T02:34:08.040Z,68.35
2019-02-16T02:36:36.670Z,62.25
2019-02-16T02:39:05.405Z,61.68
2019-02-16T02:41:33.975Z,60.45
2019-02-16T02:44:02.683Z,60.98
2019-02-16T02:46:31.315Z,60.85
2019-02-16T02:48:59.983Z,64.35
2019-02-16T02:51:28.687Z,58.17
2019-02-16T02:53:57.344Z,66.00
2019-02-16T02:56:25.986Z,58.63
2019-02-16T02:58:54.702Z,63.92
2019-02-16T03:01:23.353Z,62.43
2019-02-16T03:03:51.982Z,65.67
2019-02-16T03:06:20.671Z,58.68
2019-02-16T03:08:49.319Z,61.48
2019-02-16T03:11:17.977Z,65.95
2019-02-16T03:13:46.680Z,55.03
2019-02-16T03:16:15.317Z,55.17
2019-02-16T03:18:43.963Z,60.00
2019-02-16T03:21:12.679Z,56.58
2019-02-16T03:23:41.328Z,57.58
2019-02-16T03:26:37.613Z,53.73
2019-02-16T03:29:19.099Z,59.48
2019-02-16T03:32:07.278Z,65.55
2019-02-16T03:34:51.125Z,58.25
2019-02-16T03:37:22.956Z,60.00
2019-02-16T03:39:51.580Z,60.60
2019-02-16T03:42:20.216Z,60.25
2019-02-16T03:44:48.913Z,60.43
2019-02-16T03:47:17.561Z,61.68
2019-02-16T03:49:46.215Z,60.50
2019-02-16T03:52:14.822Z,62.03
2019-02-16T03:54:43.461Z,63.65
2019-02-16T03:57:12.115Z,59.73
2019-02-16T03:59:40.834Z,64.22
2019-02-16T04:02:09.485Z,57.25
2019-02-16T04:04:38.140Z,60.90
2019-02-16T04:07:06.843Z,55.83
2019-02-16T04:09:35.496Z,62.35
2019-02-16T04:12:04.124Z,56.68
2019-02-16T04:14:32.830Z,59.35
2019-02-16T04:17:01.457Z,59.27
2019-02-16T04:19:30.103Z,55.60
2019-02-16T04:21:58.810Z,55.80
2019-02-16T04:24:27.459Z,56.18
2019-02-16T04:26:56.084Z,53.70
2019-02-16T04:29:24.796Z,57.38
2019-02-16T04:31:54.043Z,57.13
2019-02-16T04:34:22.657Z,50.85
2019-02-16T04:36:51.346Z,59.15
2019-02-16T04:39:19.999Z,55.23
2019-02-16T04:41:48.642Z,55.38
2019-02-16T04:44:17.361Z,57.35
2019-02-16T04:46:45.993Z,54.90
2019-02-16T04:49:14.642Z,59.25
2019-02-16T04:51:43.354Z,57.95
2019-02-16T04:54:12.003Z,62.27
2019-02-16T04:56:40.671Z,59.85
2019-02-16T04:59:09.384Z,55.78
2019-02-16T05:01:38.021Z,58.40
2019-02-16T05:04:06.662Z,57.55
2019-02-16T05:06:35.357Z,51.55
2019-02-16T05:09:05.570Z,57.00
2019-02-16T05:11:34.218Z,52.98
2019-02-16T05:14:02.913Z,51.77
2019-02-16T05:16:31.488Z,51.95
2019-02-16T05:19:00.117Z,52.62
2019-02-16T05:21:28.864Z,52.13
2019-02-16T05:23:57.546Z,51.20
2019-02-16T05:26:26.198Z,54.15
2019-02-16T05:28:54.895Z,56.73
2019-02-16T05:31:23.546Z,51.70
2019-02-16T05:33:52.463Z,61.13
2019-02-16T05:36:21.177Z,56.65
2019-02-16T05:38:49.817Z,53.92
2019-02-16T05:41:18.453Z,51.77
2019-02-16T05:43:47.171Z,51.70
2019-02-16T05:46:15.824Z,50.08
2019-02-16T05:48:44.478Z,44.55
2019-02-16T05:51:13.170Z,41.05
2019-02-16T05:53:41.822Z,43.65
2019-02-16T05:56:10.480Z,47.15
2019-02-16T05:58:39.170Z,45.23
2019-02-16T06:01:07.806Z,48.92
2019-02-16T06:03:36.471Z,47.75
2019-02-16T06:06:05.235Z,45.40
2019-02-16T06:08:33.925Z,40.73
2019-02-16T06:11:03.283Z,46.05
2019-02-16T06:13:32.085Z,46.85
2019-02-16T06:16:00.653Z,48.02
2019-02-16T06:18:29.307Z,48.87
2019-02-16T06:20:58.003Z,41.92
2019-02-16T06:23:26.648Z,40.78
2019-02-16T06:25:55.285Z,46.23
2019-02-16T06:28:23.994Z,50.55
2019-02-16T06:30:52.635Z,44.95
2019-02-16T06:33:21.288Z,41.90
2019-02-16T06:35:54.983Z,43.63
2019-02-16T06:38:23.556Z,42.65
2019-02-16T06:40:52.203Z,48.40
2019-02-16T06:43:20.894Z,45.65
2019-02-16T06:45:49.532Z,53.45
2019-02-16T06:48:18.202Z,43.87
2019-02-16T06:50:46.900Z,49.58
2019-02-16T06:53:15.545Z,46.55
2019-02-16T06:55:45.758Z,46.58
2019-02-16T06:58:14.449Z,38.13
2019-02-16T07:00:43.105Z,43.78
2019-02-16T07:03:11.745Z,48.80
2019-02-16T07:05:40.445Z,37.23
2019-02-16T07:08:09.141Z,40.05
2019-02-16T07:10:37.717Z,35.95
2019-02-16T07:13:06.417Z,36.25
2019-02-16T07:15:35.075Z,40.73
2019-02-16T07:18:11.060Z,34.10
2019-02-16T07:20:39.635Z,35.48
2019-02-16T07:23:08.284Z,41.73
2019-02-16T07:25:36.985Z,40.10
2019-02-16T07:28:05.609Z,39.18
2019-02-16T07:30:34.198Z,48.58
2019-02-16T07:33:02.917Z,34.43
2019-02-16T07:35:31.583Z,46.35
2019-02-16T07:38:01.058Z,34.83
2019-02-16T07:40:29.777Z,33.53
2019-02-16T07:42:58.427Z,41.68
2019-02-16T07:45:29.649Z,33.50
2019-02-16T07:48:11.810Z,40.88
2019-02-16T07:50:47.826Z,40.50
2019-02-16T07:53:18.108Z,40.88
2019-02-16T07:55:48.323Z,40.35
2019-02-16T07:58:18.537Z,41.30
2019-02-16T08:01:03.908Z,42.38
2019-02-16T08:03:45.982Z,47.15
2019-02-16T08:06:25.013Z,42.17
2019-02-16T08:09:01.004Z,49.58
2019-02-16T08:11:34.033Z,43.13
2019-02-16T08:14:06.937Z,54.03
2019-02-16T08:16:40.162Z,46.75
2019-02-16T08:19:13.275Z,41.90
2019-02-16T08:21:52.734Z,44.40
2019-02-16T08:24:31.887Z,46.75
2019-02-16T08:27:18.563Z,43.85
2019-02-16T08:29:48.773Z,45.58
2019-02-16T08:32:30.986Z,38.92
2019-02-16T08:35:13.446Z,36.33
2019-02-16T08:37:47.927Z,45.20
2019-02-16T08:40:21.636Z,44.58
2019-02-16T08:42:54.848Z,41.55
2019-02-16T08:45:41.452Z,44.25
2019-02-16T08:48:11.739Z,38.13
2019-02-16T08:50:47.478Z,47.33
2019-02-16T08:53:20.826Z,46.85
2019-02-16T08:55:51.065Z,49.00
2019-02-16T08:58:24.064Z,47.83
2019-02-16T09:00:54.305Z,44.20
2019-02-16T09:03:33.561Z,49.13
2019-02-16T09:06:15.661Z,44.58
2019-02-16T09:08:48.690Z,42.30
2019-02-16T09:11:35.294Z,40.80
2019-02-16T09:14:23.620Z,39.33
2019-02-16T09:17:03.671Z,47.35
2019-02-16T09:19:33.879Z,47.27
2019-02-16T09:22:17.707Z,47.67
2019-02-16T09:24:47.708Z,41.65
2019-02-16T09:27:33.279Z,43.00
2019-02-16T09:30:03.545Z,42.67
2019-02-16T09:32:39.868Z,48.75
2019-02-16T09:35:13.171Z,46.25
2019-02-16T09:37:43.307Z,52.93
2019-02-16T09:40:19.378Z,44.27
2019-02-16T09:42:55.321Z,45.90
2019-02-16T09:45:31.613Z,44.33
2019-02-16T09:48:18.035Z,45.95
2019-02-16T09:51:03.577Z,52.73
2019-02-16T09:53:36.517Z,50.03
2019-02-16T09:56:09.525Z,54.98
2019-02-16T09:58:56.565Z,51.85
2019-02-16T10:01:33.057Z,51.18
2019-02-16T10:04:15.419Z,50.25
2019-02-16T10:07:01.882Z,49.90
2019-02-16T10:09:32.094Z,49.53
2019-02-16T10:12:07.881Z,45.33
2019-02-16T10:14:47.135Z,43.78
2019-02-16T10:17:17.434Z,41.18
2019-02-16T10:20:05.539Z,38.63
2019-02-16T10:22:45.004Z,37.65
2019-02-16T10:25:33.206Z,33.80
2019-02-16T10:28:09.497Z,38.88
2019-02-16T10:30:39.709Z,213.75
2019-02-16T10:33:21.979Z,28.15
2019-02-16T10:35:58.471Z,31.45
2019-02-16T10:38:31.358Z,29.15
2019-02-16T10:41:04.068Z,29.45
2019-02-16T10:43:46.296Z,30.77
2019-02-16T10:46:25.564Z,29.98
2019-02-16T10:48:58.859Z,28.85
2019-02-16T10:51:32.234Z,29.80
2019-02-16T10:54:05.309Z,26.68
2019-02-16T10:56:52.390Z,24.95
2019-02-16T10:59:22.896Z,32.42
2019-02-16T11:01:56.145Z,28.67
2019-02-16T11:04:26.366Z,24.05
2019-02-16T11:06:59.339Z,25.25
2019-02-16T11:09:35.315Z,24.82
2019-02-16T11:12:08.341Z,23.35
2019-02-16T11:14:50.790Z,24.15
2019-02-16T11:19:50.535Z,25.32
2019-02-16T11:22:23.201Z,24.72
2019-02-16T11:24:56.471Z,26.85
2019-02-16T11:27:32.840Z,26.87
2019-02-16T11:30:08.962Z,25.70
2019-02-16T11:32:39.196Z,26.62
2019-02-16T11:35:22.176Z,25.55
2019-02-16T11:38:01.249Z,32.40
2019-02-16T11:40:34.473Z,31.00
2019-02-16T11:43:13.556Z,30.00
2019-02-16T11:45:56.449Z,33.78
2019-02-16T11:48:35.409Z,28.15
2019-02-16T11:51:05.681Z,21.45
2019-02-16T11:53:41.645Z,26.87
2019-02-16T11:56:17.926Z,21.40
2019-02-16T11:59:04.972Z,25.15
2019-02-16T12:01:35.294Z,21.33
2019-02-16T12:04:20.803Z,24.75
2019-02-16T12:06:51.102Z,44.33
2019-02-16T12:09:39.471Z,28.87
2019-02-16T12:12:09.753Z,25.50
2019-02-16T12:14:56.388Z,23.45
2019-02-16T12:17:26.658Z,21.02
2019-02-16T12:19:59.612Z,25.97
2019-02-16T12:22:35.664Z,23.83
2019-02-16T12:25:21.449Z,30.40
2019-02-16T12:28:06.592Z,27.58
2019-02-16T12:30:36.741Z,22.95
2019-02-16T12:33:06.983Z,26.33
2019-02-16T12:35:49.521Z,25.60
2019-02-16T12:38:22.770Z,25.60
2019-02-16T12:40:58.868Z,27.82
2019-02-16T12:43:45.624Z,30.60
2019-02-16T12:46:15.918Z,27.85
2019-02-16T12:48:52.105Z,30.65
2019-02-16T12:51:25.065Z,34.60
2019-02-16T12:54:10.314Z,40.05
2019-02-16T12:56:49.433Z,45.23
2019-02-16T12:59:19.680Z,42.85
2019-02-16T13:01:52.356Z,58.70
2019-02-16T13:04:22.627Z,56.18
2019-02-16T13:07:10.992Z,62.90
2019-02-16T13:09:41.270Z,61.25
2019-02-16T13:12:11.517Z,68.30
2019-02-16T13:14:44.535Z,61.73
2019-02-16T13:17:14.754Z,65.62
2019-02-16T13:19:54.075Z,66.05
2019-02-16T13:22:36.382Z,72.53
2019-02-16T13:25:07.589Z,75.70
2019-02-16T13:27:49.495Z,73.50
2019-02-16T13:30:29.057Z,81.28
2019-02-16T13:33:08.103Z,71.35
2019-02-16T13:35:31.138Z,79.20
2019-02-16T13:38:16.169Z,79.32
2019-02-16T13:40:49.081Z,74.72
2019-02-16T13:43:19.311Z,75.50
2019-02-16T13:45:49.586Z,74.60
2019-02-16T13:48:25.938Z,76.37
2019-02-16T13:51:13.447Z,79.92
2019-02-16T13:53:49.286Z,81.70
2019-02-16T13:56:31.512Z,83.58
2019-02-16T13:59:13.566Z,89.67
2019-02-16T14:01:43.841Z,76.57
2019-02-16T14:04:32.602Z,83.25
2019-02-16T14:07:18.071Z,79.15
2019-02-16T14:09:50.897Z,76.45
2019-02-16T14:12:21.130Z,76.92
2019-02-16T14:14:54.182Z,77.35
2019-02-16T14:17:27.398Z,74.97
2019-02-16T14:19:56.056Z,73.75
2019-02-16T14:22:24.763Z,77.58
2019-02-16T14:24:55.019Z,76.75
2019-02-16T14:27:23.659Z,84.10
2019-02-16T14:29:52.349Z,80.80
2019-02-16T14:32:21.015Z,87.17
2019-02-16T14:34:49.677Z,85.70
2019-02-16T14:37:22.471Z,77.35
2019-02-16T14:39:51.133Z,79.12
2019-02-16T14:42:19.769Z,81.08
2019-02-16T14:44:49.436Z,83.15
2019-02-16T14:47:18.457Z,79.15
2019-02-16T14:49:47.110Z,80.92
2019-02-16T14:52:15.817Z,88.70
2019-02-16T14:54:44.449Z,89.70
2019-02-16T14:57:13.112Z,90.92
2019-02-16T14:59:41.821Z,89.97
2019-02-16T15:02:10.466Z,86.60
2019-02-16T15:04:39.048Z,90.12
2019-02-16T15:07:07.772Z,93.42
2019-02-16T15:09:36.426Z,89.10
2019-02-16T15:12:05.076Z,86.60
2019-02-16T15:14:33.797Z,91.08
2019-02-16T15:17:02.448Z,84.03
2019-02-16T15:19:31.111Z,83.78
2019-02-16T15:21:59.799Z,91.28
2019-02-16T15:24:28.451Z,88.22
2019-02-16T15:26:57.098Z,84.72
2019-02-16T15:29:25.787Z,94.90
2019-02-16T15:31:54.450Z,86.67
2019-02-16T15:34:23.091Z,85.75
2019-02-16T15:36:51.792Z,87.40
2019-02-16T15:39:20.447Z,87.82
2019-02-16T15:41:49.103Z,77.87
2019-02-16T15:44:17.833Z,90.30
2019-02-16T15:46:46.476Z,90.65
2019-02-16T15:49:15.130Z,93.65
2019-02-16T15:51:43.878Z,91.05
2019-02-16T15:54:13.131Z,87.72
2019-02-16T15:56:41.779Z,82.70
2019-02-16T15:59:10.534Z,89.47
2019-02-16T16:01:39.203Z,88.10
2019-02-16T16:04:07.883Z,85.65
2019-02-16T16:06:36.594Z,87.20
2019-02-16T16:09:19.395Z,97.65
2019-02-16T16:11:49.683Z,93.80
2019-02-16T16:14:25.707Z,82.55
2019-02-16T16:16:58.456Z,87.12
2019-02-16T16:19:34.682Z,91.40
2019-02-16T16:22:10.783Z,88.55
2019-02-16T16:24:43.789Z,95.30
2019-02-16T16:27:19.804Z,100.42
2019-02-16T16:29:53.055Z,94.87
2019-02-16T16:32:26.222Z,101.87
2019-02-16T16:35:02.115Z,104.75
2019-02-16T16:37:48.754Z,95.87
2019-02-16T16:40:24.813Z,105.32
2019-02-16T16:42:57.819Z,103.38
2019-02-16T16:45:31.017Z,103.25
2019-02-16T16:48:01.257Z,105.90
2019-02-16T16:50:31.521Z,104.15
2019-02-16T16:53:01.730Z,100.05
2019-02-16T16:55:44.900Z,89.67
2019-02-16T16:58:17.895Z,101.92
2019-02-16T17:00:48.132Z,94.50
2019-02-16T17:03:18.416Z,94.50
2019-02-16T17:05:54.418Z,99.28
2019-02-16T17:08:42.759Z,98.92
2019-02-16T17:11:15.854Z,104.40
2019-02-16T17:13:46.149Z,109.03
2019-02-16T17:16:22.378Z,100.50
2019-02-16T17:19:04.931Z,101.67
2019-02-16T17:21:51.760Z,97.15
2019-02-16T17:24:24.819Z,100.82
2019-02-16T17:26:55.048Z,108.75
2019-02-16T17:29:37.294Z,105.78
2019-02-16T17:32:13.334Z,106.87
2019-02-16T17:34:49.156Z,104.80
2019-02-16T17:37:28.353Z,105.30
2019-02-16T17:39:58.635Z,102.00
2019-02-16T17:42:37.436Z,106.95
2019-02-16T17:45:26.908Z,109.50
2019-02-16T17:48:05.991Z,113.12
2019-02-16T17:50:39.312Z,108.75
2019-02-16T17:53:12.272Z,104.47
2019-02-16T17:55:43.368Z,104.60
2019-02-16T17:58:13.583Z,113.50
2019-02-16T18:01:00.087Z,107.75
2019-02-16T18:03:42.518Z,109.35
2019-02-16T18:08:50.128Z,108.22
2019-02-16T18:11:26.025Z,107.47
2019-02-16T18:14:02.149Z,110.63
2019-02-16T18:16:32.444Z,109.10
2019-02-16T18:19:17.691Z,109.32
2019-02-16T18:21:48.093Z,115.60
2019-02-16T18:24:18.299Z,107.78
2019-02-16T18:27:00.832Z,101.45
2019-02-16T18:29:39.982Z,105.50
2019-02-16T18:32:13.287Z,105.32
2019-02-16T18:34:58.483Z,126.07
2019-02-16T18:37:28.738Z,119.67
2019-02-16T18:40:15.124Z,114.62
2019-02-16T18:42:51.896Z,125.38
2019-02-16T18:45:29.075Z,113.80
2019-02-16T18:47:59.454Z,122.02
2019-02-16T18:50:31.676Z,117.00
2019-02-16T18:53:04.403Z,112.60
2019-02-16T18:55:37.416Z,110.12
2019-02-16T18:58:17.675Z,111.88
2019-02-16T19:01:04.287Z,114.00
2019-02-16T19:03:49.557Z,113.95
2019-02-16T19:06:22.661Z,114.03
2019-02-16T19:08:55.862Z,110.95
2019-02-16T19:11:32.179Z,110.30
2019-02-16T19:14:11.473Z,115.62
2019-02-16T19:16:41.795Z,105.17
2019-02-16T19:19:15.046Z,115.35
2019-02-16T19:21:51.258Z,107.55
2019-02-16T19:24:21.768Z,114.70
2019-02-16T19:26:57.865Z,112.80
2019-02-16T19:29:40.049Z,115.60
2019-02-16T19:32:16.090Z,111.28
2019-02-16T19:34:46.376Z,108.95
2019-02-16T19:37:33.018Z,116.62
2019-02-16T19:40:03.303Z,108.90
2019-02-16T19:42:33.514Z,121.77
2019-02-16T19:45:22.054Z,112.40
2019-02-16T19:47:52.270Z,111.17
2019-02-16T19:50:38.702Z,114.08
2019-02-16T19:53:14.944Z,103.32
2019-02-16T19:56:01.536Z,115.88
2019-02-16T19:58:38.017Z,104.30
2019-02-16T20:01:11.845Z,107.75
2019-02-16T20:03:42.064Z,118.60
2019-02-16T20:06:17.889Z,123.42
2019-02-16T20:09:03.304Z,115.88
2019-02-16T20:11:51.739Z,119.60
2019-02-16T20:14:22.087Z,116.95
2019-02-16T20:16:52.318Z,116.93
2019-02-16T20:19:22.651Z,121.00
2019-02-16T20:22:01.997Z,117.72
2019-02-16T20:24:32.419Z,116.03
2019-02-16T20:27:02.715Z,116.37
2019-02-16T20:29:35.637Z,115.80
2019-02-16T20:32:20.918Z,115.45
2019-02-16T20:34:51.151Z,110.60
2019-02-16T20:37:21.503Z,116.33
2019-02-16T20:39:54.574Z,121.30
2019-02-16T20:42:30.908Z,118.10
2019-02-16T20:45:04.475Z,111.80
2019-02-16T20:47:40.835Z,118.17
2019-02-16T20:50:11.186Z,113.42
2019-02-16T20:52:57.712Z,115.92
2019-02-16T20:55:28.334Z,123.42
2019-02-16T20:58:14.849Z,114.82
2019-02-16T21:01:03.284Z,112.45
2019-02-16T21:03:43.410Z,114.05
2019-02-16T21:06:25.537Z,117.57
2019-02-16T21:08:58.735Z,116.97
2019-02-16T21:11:29.009Z,114.42
2019-02-16T21:13:59.378Z,120.28
2019-02-16T21:16:32.102Z,110.65
2019-02-16T21:19:11.399Z,113.80
2019-02-16T21:21:50.915Z,117.17
2019-02-16T21:24:27.145Z,111.92
2019-02-16T21:26:57.486Z,122.10
2019-02-16T21:29:43.097Z,111.70
2019-02-16T21:32:13.482Z,110.20
2019-02-16T21:34:52.562Z,114.15
2019-02-16T21:37:25.766Z,109.27
2019-02-16T21:40:10.953Z,111.92
2019-02-16T21:42:43.652Z,107.30
2019-02-16T21:45:16.666Z,118.17
2019-02-16T21:47:55.912Z,111.47
2019-02-16T21:50:42.675Z,113.85
2019-02-16T21:53:21.406Z,108.00
2019-02-16T21:55:53.808Z,110.00
2019-02-16T21:58:29.886Z,115.55
2019-02-16T22:01:12.034Z,114.25
2019-02-16T22:03:54.253Z,110.92
2019-02-16T22:06:24.522Z,111.97
2019-02-16T22:09:00.469Z,112.20
2019-02-16T22:11:33.401Z,107.67
2019-02-16T22:14:02.071Z,110.42
2019-02-16T22:16:30.716Z,111.20
2019-02-16T22:18:59.402Z,113.10
2019-02-16T22:21:28.041Z,118.13
2019-02-16T22:23:56.708Z,112.35
2019-02-16T22:26:25.395Z,114.40
2019-02-16T22:28:54.034Z,110.83
2019-02-16T22:31:22.691Z,115.80
2019-02-16T22:33:51.406Z,115.00
2019-02-16T22:36:20.070Z,120.15
2019-02-16T22:38:49.611Z,104.85
2019-02-16T22:41:18.324Z,118.57
2019-02-16T22:43:46.964Z,121.90
2019-02-16T22:46:15.627Z,115.42
2019-02-16T22:48:44.341Z,110.12
2019-02-16T22:51:12.977Z,121.30
2019-02-16T22:53:41.629Z,106.70
2019-02-16T22:56:10.379Z,111.92
2019-02-16T22:58:38.993Z,110.57
2019-02-16T23:01:07.634Z,106.32
2019-02-16T23:03:36.348Z,118.35
2019-02-16T23:06:05.378Z,114.37
2019-02-16T23:08:34.023Z,117.70
2019-02-16T23:11:02.732Z,114.45
2019-02-16T23:13:31.393Z,116.35
2019-02-16T23:16:00.048Z,117.82
2019-02-16T23:18:28.774Z,109.97
2019-02-16T23:20:57.425Z,111.62
2019-02-16T23:23:26.088Z,110.15
2019-02-16T23:25:54.808Z,114.72
2019-02-16T23:28:23.372Z,125.80
2019-02-16T23:30:52.031Z,117.25
2019-02-16T23:33:20.742Z,113.97
2019-02-16T23:35:49.387Z,112.52
2019-02-16T23:38:18.026Z,116.75
2019-02-16T23:40:46.739Z,114.52
2019-02-16T23:43:15.387Z,116.17
2019-02-16T23:45:44.048Z,118.57
2019-02-16T23:48:12.749Z,117.95
2019-02-16T23:50:41.417Z,121.65
2019-02-16T23:53:10.095Z,113.03
2019-02-16T23:55:38.784Z,113.60
2019-02-16T23:58:07.409Z,108.50
